createdAt,value
2019-02-08T00:02:15.809Z,40.70
2019-02-08T00:04:46.411Z,41.73
2019-02-08T00:07:17.204Z,40.20
2019-02-08T00:09:47.993Z,41.00
2019-02-08T00:12:19.788Z,40.07
2019-02-08T00:14:50.476Z,43.07
2019-02-08T00:17:21.021Z,44.27
2019-02-08T00:19:52.377Z,42.73
2019-02-08T00:22:22.985Z,41.10
2019-02-08T00:24:53.543Z,40.20
2019-02-08T00:27:24.888Z,41.60
2019-02-08T00:29:55.367Z,40.80
2019-02-08T00:32:26.507Z,40.57
2019-02-08T00:34:57.432Z,41.60
2019-02-08T00:37:28.074Z,39.80
2019-02-08T00:39:58.680Z,38.53
2019-02-08T00:42:29.208Z,37.17
2019-02-08T00:44:59.806Z,36.60
2019-02-08T00:47:30.383Z,36.03
2019-02-08T00:50:01.051Z,38.00
2019-02-08T00:52:31.570Z,36.20
2019-02-08T00:55:02.387Z,36.37
2019-02-08T00:57:33.451Z,36.27
2019-02-08T01:00:05.130Z,36.17
2019-02-08T01:02:35.961Z,36.17
2019-02-08T01:05:10.118Z,35.87
2019-02-08T01:07:41.231Z,35.70
2019-02-08T01:10:19.919Z,36.40
2019-02-08T01:12:50.596Z,39.73
2019-02-08T01:15:24.290Z,41.43
2019-02-08T01:17:55.710Z,39.87
2019-02-08T01:20:26.653Z,39.93
2019-02-08T01:22:57.936Z,34.00
2019-02-08T01:25:28.743Z,31.33
2019-02-08T01:27:59.487Z,30.90
2019-02-08T01:30:31.261Z,28.53
2019-02-08T01:33:02.368Z,29.60
2019-02-08T01:35:33.539Z,29.10
2019-02-08T01:38:04.227Z,27.00
2019-02-08T01:40:41.005Z,28.87
2019-02-08T06:57:50.337Z,26.60
2019-02-08T07:00:27.545Z,25.10
2019-02-08T07:03:17.142Z,24.23
2019-02-08T07:06:02.052Z,23.30
2019-02-08T07:08:51.649Z,23.77
2019-02-08T07:11:41.119Z,23.90
2019-02-08T07:14:30.953Z,24.33
2019-02-08T07:17:20.489Z,23.77
2019-02-08T07:20:09.039Z,25.03
2019-02-08T07:22:58.433Z,23.57
2019-02-08T07:25:47.981Z,22.30
2019-02-08T07:28:33.329Z,22.80
2019-02-08T07:31:13.606Z,27.50
2019-02-08T07:34:03.126Z,32.77
2019-02-08T07:36:52.771Z,35.17
2019-02-08T07:39:34.290Z,35.50
2019-02-08T07:42:23.859Z,35.67
2019-02-08T07:45:14.675Z,38.60
2019-02-08T07:48:04.801Z,41.37
2019-02-08T07:50:43.933Z,39.97
2019-02-08T07:53:29.512Z,37.67
2019-02-08T07:56:18.900Z,34.77
2019-02-08T07:58:56.996Z,31.57
2019-02-08T08:01:37.778Z,32.20
2019-02-08T08:04:30.131Z,33.07
2019-02-08T08:07:06.282Z,25.37
2019-02-08T08:09:55.735Z,22.40
2019-02-08T08:12:34.827Z,22.40
2019-02-08T08:15:16.892Z,23.30
2019-02-08T08:18:06.866Z,23.17
2019-02-08T08:20:52.558Z,24.03
2019-02-08T08:23:42.696Z,21.77
2019-02-08T08:26:32.666Z,22.10
2019-02-08T08:29:22.247Z,20.50
2019-02-08T08:32:01.853Z,20.33
2019-02-08T08:35:07.746Z,19.70
2019-02-08T08:38:18.038Z,19.20
2019-02-08T08:41:42.546Z,19.50
2019-02-08T08:45:06.425Z,20.57
2019-02-08T08:48:11.200Z,21.03
2019-02-08T08:51:14.707Z,21.80
2019-02-08T08:54:32.042Z,20.50
2019-02-08T08:57:31.365Z,17.40
2019-02-08T09:00:53.045Z,16.67
2019-02-08T09:04:13.485Z,18.53
2019-02-08T09:07:37.286Z,17.63
2019-02-08T09:10:57.926Z,19.00
2019-02-08T09:14:09.460Z,22.00
2019-02-08T09:17:37.508Z,14.80
2019-02-08T09:20:52.443Z,16.07
2019-02-08T09:24:07.146Z,16.00
2019-02-08T09:27:27.825Z,14.70
2019-02-08T09:30:41.817Z,14.00
2019-02-08T09:34:10.100Z,14.43
2019-02-08T09:37:14.900Z,13.43
2019-02-08T09:40:23.809Z,11.67
2019-02-08T09:43:51.683Z,12.60
2019-02-08T09:47:19.575Z,12.43
2019-02-08T09:50:47.429Z,12.10
2019-02-08T09:53:51.864Z,14.17
2019-02-08T09:57:07.586Z,14.60
2019-02-08T10:00:23.905Z,12.47
2019-02-08T10:03:51.751Z,11.30
2019-02-08T10:07:15.201Z,11.73
2019-02-08T10:10:31.378Z,12.83
2019-02-08T10:13:59.695Z,12.20
2019-02-08T10:17:10.954Z,12.43
2019-02-08T10:20:28.305Z,13.50
2019-02-08T10:23:56.277Z,14.03
2019-02-08T10:27:24.205Z,12.40
2019-02-08T10:30:50.206Z,10.93
2019-02-08T10:34:18.165Z,11.20
2019-02-08T10:37:46.068Z,10.10
2019-02-08T10:41:14.021Z,9.97
2019-02-08T10:44:37.546Z,11.33
2019-02-08T10:47:54.750Z,11.10
2019-02-08T10:51:22.685Z,9.63
2019-02-08T10:54:50.547Z,9.20
2019-02-08T10:58:18.521Z,9.17
2019-02-08T11:01:46.478Z,10.37
2019-02-08T11:05:14.459Z,8.97
2019-02-08T11:08:29.460Z,10.17
2019-02-08T11:11:57.381Z,10.77
2019-02-08T11:15:25.245Z,11.37
2019-02-08T11:18:52.221Z,9.87
2019-02-08T11:21:22.816Z,11.73
2019-02-08T11:23:53.395Z,10.90
2019-02-08T11:26:24.588Z,12.57
2019-02-08T11:28:55.390Z,12.53
2019-02-08T11:31:25.841Z,10.73
2019-02-08T11:33:56.380Z,11.97
2019-02-08T11:36:27.007Z,10.37
2019-02-08T11:38:57.728Z,11.97
2019-02-08T11:41:28.601Z,10.17
2019-02-08T11:43:59.281Z,12.03
2019-02-08T11:46:29.889Z,11.53
2019-02-08T11:49:00.470Z,9.77
2019-02-08T11:51:30.999Z,10.90
2019-02-08T11:54:01.622Z,9.73
2019-02-08T11:56:32.141Z,9.53
2019-02-08T11:59:02.850Z,10.17
2019-02-08T12:01:38.439Z,11.15
2019-02-08T12:04:09.502Z,10.93
2019-02-08T12:06:40.130Z,11.20
2019-02-08T12:09:18.210Z,10.47
2019-02-08T12:11:49.209Z,9.33
2019-02-08T12:14:19.922Z,11.30
2019-02-08T12:16:50.450Z,11.50
2019-02-08T12:19:21.161Z,10.57
2019-02-08T12:21:51.861Z,11.30
2019-02-08T12:24:22.931Z,8.80
2019-02-08T12:26:53.680Z,9.93
2019-02-08T12:29:24.421Z,9.07
2019-02-08T12:31:54.960Z,10.50
2019-02-08T12:34:25.906Z,10.83
2019-02-08T12:36:56.522Z,9.20
2019-02-08T12:39:27.189Z,10.90
2019-02-08T12:41:58.089Z,10.67
2019-02-08T12:44:28.897Z,10.60
2019-02-08T12:46:59.647Z,10.63
2019-02-08T12:49:30.121Z,11.03
2019-02-08T12:52:00.993Z,10.17
2019-02-08T12:54:31.721Z,10.43
2019-02-08T12:57:03.589Z,10.17
2019-02-08T12:59:34.346Z,9.87
2019-02-08T13:02:05.750Z,10.77
2019-02-08T13:04:36.919Z,11.33
2019-02-08T13:07:07.600Z,13.40
2019-02-08T13:09:39.596Z,12.93
2019-02-08T13:12:10.611Z,10.87
2019-02-08T13:14:42.346Z,9.50
2019-02-08T13:17:13.087Z,10.37
2019-02-08T13:19:43.628Z,11.03
2019-02-08T13:22:15.456Z,10.27
2019-02-08T13:24:46.122Z,10.47
2019-02-08T13:27:16.801Z,11.30
2019-02-08T13:29:47.632Z,10.77
2019-02-08T13:32:18.269Z,10.23
2019-02-08T13:34:48.867Z,10.67
2019-02-08T13:37:19.506Z,11.20
2019-02-08T13:39:50.109Z,12.13
2019-02-08T13:42:20.667Z,10.93
2019-02-08T13:44:51.216Z,11.73
2019-02-08T13:47:21.946Z,12.53
2019-02-08T13:49:52.747Z,11.90
2019-02-08T13:52:23.426Z,12.87
2019-02-08T13:54:55.220Z,12.63
2019-02-08T13:57:27.121Z,12.27
2019-02-08T13:59:57.875Z,12.53
2019-02-08T14:02:28.401Z,11.23
2019-02-08T14:04:59.121Z,11.33
2019-02-08T14:07:29.760Z,11.23
2019-02-08T14:10:02.719Z,12.97
2019-02-08T14:12:34.317Z,11.97
2019-02-08T14:15:06.188Z,12.50
2019-02-08T14:17:37.376Z,13.03
2019-02-08T14:20:11.121Z,13.47
2019-02-08T14:22:41.806Z,13.63
2019-02-08T14:25:13.790Z,12.27
2019-02-08T14:27:45.019Z,13.30
2019-02-08T14:30:22.012Z,12.23
2019-02-08T14:32:52.781Z,11.70
2019-02-08T14:35:23.607Z,12.27
2019-02-08T14:37:55.101Z,11.90
2019-02-08T14:40:26.431Z,11.07
2019-02-08T14:42:57.200Z,11.83
2019-02-08T14:45:27.961Z,9.90
2019-02-08T14:47:58.710Z,10.20
2019-02-08T14:50:30.120Z,10.97
2019-02-08T14:53:01.199Z,10.80
2019-02-08T14:55:32.639Z,12.27
2019-02-08T14:58:03.548Z,12.57
2019-02-08T15:00:34.278Z,11.90
2019-02-08T15:03:04.808Z,12.80
2019-02-08T15:05:35.485Z,12.30
2019-02-08T15:08:06.478Z,13.33
2019-02-08T15:10:41.339Z,15.23
2019-02-08T15:13:12.293Z,16.90
2019-02-08T15:15:42.881Z,16.23
2019-02-08T15:18:13.693Z,14.90
2019-02-08T15:20:44.279Z,14.20
2019-02-08T15:23:14.946Z,16.60
2019-02-08T15:25:45.532Z,15.63
2019-02-08T15:28:16.111Z,18.30
2019-02-08T15:30:46.939Z,17.10
2019-02-08T15:33:17.590Z,14.83
2019-02-08T15:35:48.194Z,16.97
2019-02-08T15:38:18.938Z,21.90
2019-02-08T15:40:53.879Z,20.27
2019-02-08T15:43:26.061Z,19.63
2019-02-08T15:46:03.693Z,17.77
2019-02-08T15:48:34.521Z,19.13
2019-02-08T15:51:05.500Z,16.13
2019-02-08T15:53:36.381Z,16.17
2019-02-08T15:56:13.954Z,15.77
2019-02-08T15:58:44.776Z,17.47
2019-02-08T16:01:16.238Z,19.13
2019-02-08T16:03:46.865Z,22.50
2019-02-08T16:06:17.578Z,23.77
2019-02-08T16:08:48.255Z,25.60
2019-02-08T16:11:18.933Z,24.90
2019-02-08T16:13:49.706Z,22.50
2019-02-08T16:16:20.472Z,22.87
2019-02-08T16:18:51.153Z,22.80
2019-02-08T16:21:21.959Z,24.87
2019-02-08T16:23:52.722Z,27.90
2019-02-08T16:26:23.533Z,26.30
2019-02-08T16:28:54.517Z,29.57
2019-02-08T16:31:25.174Z,27.23
2019-02-08T16:33:55.919Z,26.93
2019-02-08T16:36:27.979Z,27.27
2019-02-08T16:38:58.705Z,26.90
2019-02-08T16:41:29.540Z,27.13
2019-02-08T16:44:00.455Z,26.50
2019-02-08T16:46:31.576Z,24.50
2019-02-08T16:49:03.474Z,25.87
2019-02-08T16:51:34.219Z,22.97
2019-02-08T16:54:05.174Z,24.37
2019-02-08T16:56:35.930Z,24.50
2019-02-08T16:59:07.298Z,24.10
2019-02-08T17:01:39.189Z,23.70
2019-02-08T17:04:11.659Z,23.97
2019-02-08T17:06:42.481Z,23.83
2019-02-08T17:09:17.955Z,22.63
2019-02-08T17:11:53.219Z,22.10
2019-02-08T17:14:25.019Z,21.07
2019-02-08T17:16:58.818Z,19.20
2019-02-08T17:19:30.872Z,22.00
2019-02-08T17:22:04.449Z,18.53
2019-02-08T17:24:35.244Z,18.73
2019-02-08T17:27:06.140Z,17.97
2019-02-08T17:29:41.560Z,17.57
2019-02-08T17:32:12.507Z,16.93
2019-02-08T17:34:43.344Z,17.13
2019-02-08T17:37:15.189Z,18.20
2019-02-08T17:39:46.025Z,19.40
2019-02-08T17:42:20.960Z,17.37
2019-02-08T17:44:51.962Z,20.00
2019-02-08T17:47:23.196Z,22.37
2019-02-08T17:49:53.863Z,28.63
2019-02-08T17:52:25.929Z,30.33
2019-02-08T17:54:56.581Z,27.40
2019-02-08T17:57:33.511Z,31.03
2019-02-08T18:00:11.711Z,32.00
2019-02-08T18:02:42.492Z,33.63
2019-02-08T18:05:14.111Z,33.47
2019-02-08T18:07:46.300Z,34.03
2019-02-08T18:10:23.683Z,32.57
2019-02-08T18:12:59.137Z,32.20
2019-02-08T18:15:30.225Z,35.33
2019-02-08T18:18:02.898Z,32.77
2019-02-08T18:20:37.168Z,34.37
2019-02-08T18:23:08.238Z,38.03
2019-02-08T18:25:38.935Z,34.33
2019-02-08T18:28:11.298Z,39.43
2019-02-08T18:30:42.250Z,39.30
2019-02-08T18:33:13.419Z,40.70
2019-02-08T18:35:44.191Z,39.60
2019-02-08T18:38:16.112Z,39.33
2019-02-08T18:40:57.349Z,40.77
2019-02-08T18:43:28.642Z,38.67
2019-02-08T18:45:59.391Z,37.17
2019-02-08T18:48:33.722Z,35.13
2019-02-08T18:51:06.562Z,34.97
2019-02-08T18:53:37.287Z,35.60
2019-02-08T18:56:13.062Z,32.60
2019-02-08T18:58:44.939Z,35.47
2019-02-08T19:01:19.134Z,36.57
2019-02-08T19:03:52.962Z,38.10
2019-02-08T19:06:27.591Z,37.63
2019-02-08T19:08:58.829Z,33.63
2019-02-08T19:11:34.303Z,36.42
2019-02-08T19:14:09.080Z,35.37
2019-02-08T19:16:39.714Z,32.83
2019-02-08T19:19:18.665Z,31.17
2019-02-08T19:21:51.132Z,29.63
2019-02-08T19:24:26.285Z,33.77
2019-02-08T19:26:58.011Z,33.10
2019-02-08T19:29:33.381Z,31.90
2019-02-08T19:32:07.999Z,32.43
2019-02-08T19:34:42.940Z,31.80
2019-02-08T19:37:23.481Z,31.50
2019-02-08T19:39:56.959Z,29.03
2019-02-08T19:42:29.251Z,30.57
2019-02-08T19:45:05.003Z,27.87
2019-02-08T19:47:36.984Z,29.73
2019-02-08T19:50:11.331Z,29.07
2019-02-08T19:52:51.523Z,28.80
2019-02-08T19:55:25.042Z,30.50
2019-02-08T19:58:01.519Z,28.53
2019-02-08T20:00:39.030Z,29.67
2019-02-08T20:03:11.030Z,30.77
2019-02-08T20:05:42.170Z,30.50
2019-02-08T20:08:19.011Z,30.63
2019-02-08T20:10:52.616Z,29.83
2019-02-08T20:13:23.465Z,29.20
2019-02-08T20:15:54.282Z,30.60
2019-02-08T20:18:31.825Z,31.73
2019-02-08T20:21:03.828Z,31.40
2019-02-08T20:23:46.881Z,31.13
2019-02-08T20:26:18.939Z,30.17
2019-02-08T20:28:50.469Z,29.63
2019-02-08T20:31:26.843Z,31.57
2019-02-08T20:34:00.781Z,28.40
2019-02-08T20:36:34.920Z,29.87
2019-02-08T20:39:09.704Z,30.27
2019-02-08T20:41:40.868Z,31.63
2019-02-08T20:44:18.036Z,31.80
2019-02-08T20:46:50.791Z,30.77
2019-02-08T20:49:31.867Z,32.53
2019-02-08T20:52:03.898Z,31.70
2019-02-08T20:54:41.501Z,33.10
2019-02-08T20:57:15.645Z,34.80
2019-02-08T20:59:56.034Z,33.40
2019-02-08T21:02:36.386Z,32.43
2019-02-08T21:05:09.247Z,32.77
2019-02-08T21:07:42.709Z,32.00
2019-02-08T21:10:16.513Z,31.70
2019-02-08T21:12:49.548Z,32.70
2019-02-08T21:15:22.918Z,33.70
2019-02-08T21:17:57.132Z,31.93
2019-02-08T21:20:29.557Z,35.33
2019-02-08T21:23:04.292Z,34.63
2019-02-08T21:25:37.015Z,34.93
2019-02-08T21:28:10.998Z,34.67
2019-02-08T21:30:46.263Z,37.10
2019-02-08T21:33:18.315Z,34.77
2019-02-08T21:35:51.906Z,36.13
2019-02-08T21:38:24.194Z,35.23
2019-02-08T21:40:56.144Z,34.40
2019-02-08T21:43:28.456Z,36.53
2019-02-08T21:45:59.256Z,35.93
2019-02-08T21:48:30.312Z,34.90
2019-02-08T21:51:02.217Z,35.13
2019-02-08T21:53:33.080Z,35.00
2019-02-08T21:56:04.069Z,35.77
2019-02-08T21:58:37.587Z,35.73
2019-02-08T22:01:08.848Z,37.80
2019-02-08T22:03:40.696Z,36.87
2019-02-08T22:06:12.425Z,36.90
2019-02-08T22:08:43.692Z,37.83
2019-02-08T22:11:14.513Z,38.30
2019-02-08T22:13:45.352Z,40.70
2019-02-08T22:16:16.487Z,39.07
2019-02-08T22:18:50.795Z,40.63
2019-02-08T22:21:24.155Z,40.00
2019-02-08T22:23:57.024Z,38.63
2019-02-08T22:26:28.835Z,40.53
2019-02-08T22:29:00.851Z,39.60
2019-02-08T22:31:34.054Z,38.17
2019-02-08T22:34:06.916Z,38.47
2019-02-08T22:36:40.662Z,38.47
2019-02-08T22:39:14.256Z,38.20
2019-02-08T22:41:48.059Z,38.57
2019-02-08T22:44:23.240Z,40.40
2019-02-08T22:46:56.862Z,38.43
2019-02-08T22:49:30.456Z,40.77
2019-02-08T22:52:01.247Z,38.33
2019-02-08T22:54:31.927Z,39.23
2019-02-08T22:57:02.470Z,36.97
2019-02-08T22:59:32.926Z,37.57
2019-02-08T23:02:04.131Z,36.00
2019-02-08T23:04:34.752Z,37.33
2019-02-08T23:07:05.788Z,36.70
2019-02-08T23:09:36.355Z,35.40
2019-02-08T23:12:08.272Z,36.23
2019-02-08T23:14:39.016Z,34.70
2019-02-08T23:17:10.170Z,33.43
2019-02-08T23:19:40.703Z,34.27
2019-02-08T23:22:11.582Z,35.67
2019-02-08T23:24:42.359Z,36.27
2019-02-08T23:27:13.453Z,34.57
2019-02-08T23:29:44.220Z,34.33
2019-02-08T23:32:15.019Z,34.87
2019-02-08T23:34:45.719Z,33.23
2019-02-08T23:37:16.400Z,35.23
2019-02-08T23:39:47.164Z,33.13
2019-02-08T23:42:18.019Z,32.07
2019-02-08T23:44:48.759Z,33.90
2019-02-08T23:47:19.557Z,33.70
2019-02-08T23:49:50.375Z,32.63
2019-02-08T23:52:21.035Z,31.20
2019-02-08T23:54:51.659Z,33.37
2019-02-08T23:57:22.455Z,31.13
2019-02-08T23:59:53.230Z,31.73
